Time;durP1;ratioP1;P1;durP2;ratioP2;P2;SDS_P1;SDS_P2;PMS_P1;PMS_P2;Temp;Humidity;BMP_temperature;BMP_pressure;BME280_temperature;BME280_humidity;BME280_pressure;Samples;Min_cycle;Max_cycle;Signal;HPM_P1;HPM_P2
2024/04/13 00:00:24;;;;;;;2.22;1.50;;;;;;;;;;5405695;26;20287;-72
2024/04/13 00:02:49;;;;;;;3.38;1.33;;;;;;;;;;5403089;26;20596;-72
2024/04/13 00:05:14;;;;;;;2.08;1.42;;;;;;;;;;5398771;26;20226;-70
2024/04/13 00:07:39;;;;;;;1.98;1.27;;;;;;;;;;5394820;26;20281;-70
2024/04/13 00:10:05;;;;;;;1.63;1.40;;;;;;;;;;5398998;26;20231;-70
2024/04/13 00:12:30;;;;;;;1.80;1.60;;;;;;;;;;5398276;26;20274;-70
2024/04/13 00:14:55;;;;;;;3.55;1.73;;;;;;;;;;5437206;26;20681;-72
2024/04/13 00:17:22;;;;;;;2.85;1.23;;;;;;;;;;5408793;26;20598;-71
2024/04/13 00:19:48;;;;;;;2.90;1.52;;;;;;;;;;5404956;26;20328;-72
2024/04/13 00:22:14;;;;;;;1.77;1.38;;;;;;;;;;5404949;26;20597;-71
2024/04/13 00:24:41;;;;;;;1.65;1.33;;;;;;;;;;5401993;26;20280;-71
2024/04/13 00:27:06;;;;;;;2.92;1.42;;;;;;;;;;5407975;26;20269;-72
2024/04/13 00:29:31;;;;;;;2.17;1.67;;;;;;;;;;5405765;26;20232;-71
2024/04/13 00:31:57;;;;;;;2.00;1.60;;;;;;;;;;5412881;26;20357;-71
2024/04/13 00:34:22;;;;;;;2.75;1.70;;;;;;;;;;5399333;26;20235;-71
2024/04/13 00:36:47;;;;;;;2.80;2.05;;;;;;;;;;5401431;26;20227;-70
2024/04/13 00:39:13;;;;;;;3.55;1.52;;;;;;;;;;5409106;26;20340;-71
2024/04/13 00:41:38;;;;;;;4.00;1.73;;;;;;;;;;5401261;26;20286;-72
2024/04/13 00:44:03;;;;;;;2.55;1.80;;;;;;;;;;5400806;26;20330;-70
2024/04/13 00:46:31;;;;;;;3.25;1.42;;;;;;;;;;5404499;26;20590;-74
2024/04/13 00:48:57;;;;;;;1.77;1.50;;;;;;;;;;5397460;26;20636;-71
2024/04/13 00:51:23;;;;;;;3.47;1.40;;;;;;;;;;5398823;26;20277;-71
2024/04/13 00:53:48;;;;;;;2.60;1.70;;;;;;;;;;5394845;26;20336;-71
2024/04/13 00:56:13;;;;;;;3.53;1.60;;;;;;;;;;5402788;26;20242;-71
2024/04/13 00:58:40;;;;;;;2.75;2.00;;;;;;;;;;5403556;26;20239;-71
2024/04/13 01:01:08;;;;;;;2.78;1.40;;;;;;;;;;5396918;26;20624;-71
2024/04/13 01:03:35;;;;;;;1.88;1.42;;;;;;;;;;5406365;26;20239;-71
2024/04/13 01:06:00;;;;;;;3.20;1.30;;;;;;;;;;5405954;26;20242;-72
2024/04/13 01:08:28;;;;;;;4.63;2.00;;;;;;;;;;5401051;26;20638;-72
2024/04/13 01:10:55;;;;;;;1.95;1.55;;;;;;;;;;5395367;26;20293;-71
2024/04/13 01:13:21;;;;;;;2.88;1.60;;;;;;;;;;5402269;26;20235;-72
2024/04/13 01:15:46;;;;;;;1.90;1.73;;;;;;;;;;5404186;26;20285;-72
2024/04/13 01:18:14;;;;;;;1.85;1.52;;;;;;;;;;5405593;26;20281;-71
2024/04/13 01:20:40;;;;;;;4.10;1.52;;;;;;;;;;5410400;26;20240;-71
2024/04/13 01:23:06;;;;;;;2.28;1.90;;;;;;;;;;5403539;26;20236;-73
2024/04/13 01:25:32;;;;;;;3.78;2.13;;;;;;;;;;5405818;26;20344;-71
2024/04/13 01:27:57;;;;;;;3.20;1.98;;;;;;;;;;5414950;26;20246;-72
2024/04/13 01:30:25;;;;;;;2.45;2.03;;;;;;;;;;5405369;26;20231;-74
2024/04/13 01:32:53;;;;;;;3.47;1.80;;;;;;;;;;5399040;26;20231;-71
2024/04/13 01:35:19;;;;;;;4.03;1.95;;;;;;;;;;5406997;26;20290;-71
2024/04/13 01:37:44;;;;;;;4.70;2.75;;;;;;;;;;5407958;26;20671;-70
2024/04/13 01:40:10;;;;;;;4.85;2.40;;;;;;;;;;5403202;26;20235;-72
2024/04/13 01:42:36;;;;;;;7.07;2.75;;;;;;;;;;5405108;26;20800;-71
2024/04/13 01:45:01;;;;;;;3.53;2.45;;;;;;;;;;5402245;26;20235;-72
2024/04/13 01:47:26;;;;;;;5.68;2.00;;;;;;;;;;5404566;26;20278;-71
2024/04/13 01:49:52;;;;;;;2.83;1.90;;;;;;;;;;5401954;26;20235;-72
2024/04/13 01:52:17;;;;;;;3.13;1.83;;;;;;;;;;5402749;26;20721;-71
2024/04/13 01:54:42;;;;;;;2.67;2.08;;;;;;;;;;5407869;26;20783;-71
2024/04/13 01:57:07;;;;;;;3.20;1.92;;;;;;;;;;5409304;26;20236;-73
2024/04/13 01:59:32;;;;;;;5.13;2.00;;;;;;;;;;5408955;26;20239;-71
2024/04/13 02:01:58;;;;;;;3.55;1.70;;;;;;;;;;5399730;26;20239;-71
2024/04/13 02:04:23;;;;;;;3.47;1.92;;;;;;;;;;5404365;26;20788;-71
2024/04/13 02:06:48;;;;;;;4.57;2.25;;;;;;;;;;5404099;26;20235;-71
2024/04/13 02:09:14;;;;;;;2.88;2.05;;;;;;;;;;5437186;26;20246;-71
2024/04/13 02:11:39;;;;;;;2.92;1.63;;;;;;;;;;5395627;26;20239;-73
2024/04/13 02:14:04;;;;;;;4.07;2.08;;;;;;;;;;5401620;26;20618;-72
2024/04/13 02:16:30;;;;;;;2.75;2.00;;;;;;;;;;5398808;26;20594;-73
2024/04/13 02:18:55;;;;;;;2.97;2.30;;;;;;;;;;5397983;26;20236;-72
2024/04/13 02:21:20;;;;;;;2.55;1.85;;;;;;;;;;5406182;26;20278;-72
2024/04/13 02:23:45;;;;;;;2.63;1.75;;;;;;;;;;5410521;26;20242;-72
2024/04/13 02:26:11;;;;;;;2.05;1.73;;;;;;;;;;5404172;26;20576;-72
2024/04/13 02:28:36;;;;;;;3.15;1.90;;;;;;;;;;5401661;26;20655;-71
2024/04/13 02:31:02;;;;;;;2.08;1.63;;;;;;;;;;5407042;26;20231;-72
2024/04/13 02:33:27;;;;;;;4.13;1.73;;;;;;;;;;5398026;26;20238;-71
2024/04/13 02:35:59;;;;;;;3.63;1.98;;;;;;;;;;5409453;26;20695;-72
2024/04/13 02:38:24;;;;;;;3.40;2.55;;;;;;;;;;5410541;26;20262;-72
2024/04/13 02:40:53;;;;;;;6.10;3.33;;;;;;;;;;5411733;26;20288;-74
2024/04/13 02:43:18;;;;;;;6.57;3.33;;;;;;;;;;5407897;26;20331;-71
2024/04/13 02:45:44;;;;;;;3.60;2.40;;;;;;;;;;5392537;26;20254;-71
2024/04/13 02:48:09;;;;;;;4.38;2.17;;;;;;;;;;5392527;26;20257;-71
2024/04/13 02:50:35;;;;;;;3.95;1.80;;;;;;;;;;5391958;26;20351;-71
2024/04/13 02:53:00;;;;;;;3.13;2.00;;;;;;;;;;5389745;26;20231;-73
2024/04/13 02:55:25;;;;;;;5.97;1.90;;;;;;;;;;5389919;26;20231;-73
2024/04/13 02:57:50;;;;;;;3.08;2.25;;;;;;;;;;5388339;26;20273;-74
2024/04/13 03:00:15;;;;;;;4.85;2.30;;;;;;;;;;5388368;26;20641;-72
2024/04/13 03:02:42;;;;;;;3.70;2.35;;;;;;;;;;5388544;26;20294;-71
2024/04/13 03:05:07;;;;;;;3.42;1.92;;;;;;;;;;5388491;26;20277;-71
2024/04/13 03:07:34;;;;;;;3.40;1.88;;;;;;;;;;5385967;26;20372;-72
2024/04/13 03:09:59;;;;;;;7.32;2.53;;;;;;;;;;5389691;26;20246;-71
2024/04/13 03:12:24;;;;;;;3.85;2.05;;;;;;;;;;5395179;26;20314;-71
2024/04/13 03:14:49;;;;;;;4.22;2.42;;;;;;;;;;5386642;26;20356;-71
2024/04/13 03:17:15;;;;;;;3.33;2.10;;;;;;;;;;5390849;26;20307;-71
2024/04/13 03:19:40;;;;;;;3.40;2.30;;;;;;;;;;5423321;21;21027;-72
2024/04/13 03:22:05;;;;;;;4.43;2.47;;;;;;;;;;5417553;26;20241;-72
2024/04/13 03:24:33;;;;;;;4.60;2.53;;;;;;;;;;5412644;26;20233;-72
2024/04/13 03:26:58;;;;;;;2.22;1.80;;;;;;;;;;5412593;26;20252;-72
2024/04/13 03:29:23;;;;;;;4.72;2.20;;;;;;;;;;5387411;26;20390;-72
2024/04/13 03:31:48;;;;;;;4.07;2.53;;;;;;;;;;5383901;26;20714;-72
2024/04/13 03:34:13;;;;;;;4.43;2.35;;;;;;;;;;5380949;26;20377;-72
2024/04/13 03:36:40;;;;;;;4.38;2.15;;;;;;;;;;5383260;26;20239;-72
2024/04/13 03:39:05;;;;;;;3.05;2.35;;;;;;;;;;5390040;26;20282;-72
2024/04/13 03:41:30;;;;;;;5.00;2.50;;;;;;;;;;5382952;26;20297;-73
2024/04/13 03:43:56;;;;;;;5.55;2.80;;;;;;;;;;5382322;26;21121;-73
2024/04/13 03:46:21;;;;;;;3.65;2.63;;;;;;;;;;5380293;26;21000;-72
2024/04/13 03:48:47;;;;;;;3.60;2.60;;;;;;;;;;5383642;26;20749;-73
2024/04/13 03:51:13;;;;;;;3.45;2.25;;;;;;;;;;5385761;26;20246;-73
2024/04/13 03:53:38;;;;;;;3.40;2.38;;;;;;;;;;5385286;26;20243;-72
2024/04/13 03:56:03;;;;;;;3.08;2.45;;;;;;;;;;5385745;26;20281;-73
2024/04/13 03:58:29;;;;;;;4.68;2.42;;;;;;;;;;5390188;26;20653;-73
2024/04/13 04:00:54;;;;;;;4.65;2.80;;;;;;;;;;5386318;26;20242;-73
2024/04/13 04:03:19;;;;;;;3.63;2.17;;;;;;;;;;5381978;26;20757;-73
2024/04/13 04:05:48;;;;;;;4.00;2.67;;;;;;;;;;5394225;26;20238;-73
2024/04/13 04:08:13;;;;;;;4.50;2.60;;;;;;;;;;5384529;26;20327;-72
2024/04/13 04:10:40;;;;;;;3.88;2.58;;;;;;;;;;5386799;26;20235;-72
2024/04/13 04:13:05;;;;;;;3.35;2.30;;;;;;;;;;5383956;26;20238;-72
2024/04/13 04:15:32;;;;;;;4.63;2.97;;;;;;;;;;5383519;26;22437;-73
2024/04/13 04:17:57;;;;;;;5.95;3.13;;;;;;;;;;5389385;26;21230;-73
2024/04/13 04:20:22;;;;;;;3.60;2.90;;;;;;;;;;5378974;26;20238;-73
2024/04/13 04:22:47;;;;;;;7.28;3.05;;;;;;;;;;5416670;26;20234;-73
2024/04/13 04:25:13;;;;;;;4.30;2.80;;;;;;;;;;5382076;26;20251;-73
2024/04/13 04:27:38;;;;;;;5.50;2.80;;;;;;;;;;5382643;26;20239;-72
2024/04/13 04:30:03;;;;;;;5.22;3.10;;;;;;;;;;5383375;26;20281;-72
2024/04/13 04:32:28;;;;;;;4.53;3.00;;;;;;;;;;5384170;26;20303;-72
2024/04/13 04:34:54;;;;;;;3.90;2.67;;;;;;;;;;5384606;26;21702;-72
2024/04/13 04:37:19;;;;;;;3.70;3.28;;;;;;;;;;5381466;26;20270;-72
2024/04/13 04:39:45;;;;;;;4.53;3.10;;;;;;;;;;5386760;26;22500;-73
2024/04/13 04:42:10;;;;;;;6.97;3.05;;;;;;;;;;5382984;26;20242;-72
2024/04/13 04:44:36;;;;;;;7.22;2.83;;;;;;;;;;5385001;26;20265;-73
2024/04/13 04:47:01;;;;;;;4.65;2.90;;;;;;;;;;5384576;26;20232;-73
2024/04/13 04:49:26;;;;;;;5.93;2.72;;;;;;;;;;5385072;26;20245;-72
2024/04/13 04:51:52;;;;;;;3.40;2.65;;;;;;;;;;5382452;26;20271;-72
2024/04/13 04:54:19;;;;;;;3.67;2.83;;;;;;;;;;5384593;26;20346;-73
2024/04/13 04:56:44;;;;;;;5.70;3.17;;;;;;;;;;5385300;26;20278;-73
2024/04/13 04:59:10;;;;;;;8.10;2.65;;;;;;;;;;5384258;26;20235;-73
2024/04/13 05:01:35;;;;;;;7.68;3.20;;;;;;;;;;5383940;26;20351;-73
2024/04/13 05:04:00;;;;;;;8.85;3.47;;;;;;;;;;5407987;26;20236;-72
2024/04/13 05:06:25;;;;;;;7.00;3.50;;;;;;;;;;5382541;26;20242;-72
2024/04/13 05:08:50;;;;;;;4.18;3.13;;;;;;;;;;5384314;26;20282;-72
2024/04/13 05:11:16;;;;;;;8.75;3.42;;;;;;;;;;5383816;26;20243;-72
2024/04/13 05:13:41;;;;;;;4.47;2.97;;;;;;;;;;5384207;26;20823;-72
2024/04/13 05:16:09;;;;;;;6.00;3.70;;;;;;;;;;5383150;26;20252;-73
2024/04/13 05:18:35;;;;;;;5.10;3.13;;;;;;;;;;5387494;26;20302;-73
2024/04/13 05:21:00;;;;;;;5.07;3.03;;;;;;;;;;5382791;26;20359;-72
2024/04/13 05:23:26;;;;;;;10.00;3.55;;;;;;;;;;5389118;26;20293;-73
2024/04/13 05:25:51;;;;;;;4.40;2.90;;;;;;;;;;5384118;26;20266;-72
2024/04/13 05:28:16;;;;;;;7.60;3.42;;;;;;;;;;5383225;26;20246;-72
2024/04/13 05:30:55;;;;;;;7.05;3.53;;;;;;;;;;5387478;26;20273;-72
2024/04/13 05:33:20;;;;;;;7.35;3.63;;;;;;;;;;5381111;26;20231;-73
2024/04/13 05:35:46;;;;;;;6.80;3.60;;;;;;;;;;5384468;26;20239;-73
2024/04/13 05:38:12;;;;;;;4.65;3.20;;;;;;;;;;5382234;26;21088;-73
2024/04/13 05:40:37;;;;;;;6.30;3.15;;;;;;;;;;5382359;26;20239;-73
2024/04/13 05:43:02;;;;;;;8.77;3.20;;;;;;;;;;5383321;26;20733;-73
2024/04/13 05:45:27;;;;;;;4.97;3.47;;;;;;;;;;5381236;26;20281;-73
2024/04/13 05:47:53;;;;;;;6.25;3.00;;;;;;;;;;5409637;26;20286;-74
2024/04/13 05:50:18;;;;;;;6.57;3.15;;;;;;;;;;5385086;26;21138;-73
2024/04/13 05:52:43;;;;;;;3.25;2.47;;;;;;;;;;5385160;26;20292;-73
2024/04/13 05:55:08;;;;;;;5.53;2.67;;;;;;;;;;5382256;26;20281;-73
2024/04/13 05:57:33;;;;;;;4.97;2.65;;;;;;;;;;5381061;26;20235;-73
2024/04/13 05:59:59;;;;;;;3.08;2.38;;;;;;;;;;5382875;26;20741;-73
2024/04/13 06:02:27;;;;;;;4.32;2.67;;;;;;;;;;5407422;26;20246;-73
2024/04/13 06:04:53;;;;;;;6.28;2.83;;;;;;;;;;5382031;26;20235;-73
2024/04/13 06:07:19;;;;;;;7.82;3.17;;;;;;;;;;5385235;26;21135;-73
2024/04/13 06:09:44;;;;;;;4.72;2.63;;;;;;;;;;5380792;26;22388;-73
2024/04/13 06:12:09;;;;;;;3.80;2.63;;;;;;;;;;5383647;26;20293;-73
2024/04/13 06:14:34;;;;;;;4.07;2.67;;;;;;;;;;5387785;26;20245;-73
2024/04/13 06:16:59;;;;;;;5.10;2.65;;;;;;;;;;5390486;26;20860;-73
2024/04/13 06:19:25;;;;;;;4.38;2.65;;;;;;;;;;5388189;26;20347;-74
2024/04/13 06:21:50;;;;;;;5.15;2.55;;;;;;;;;;5389887;26;20287;-72
2024/04/13 06:24:15;;;;;;;11.75;2.85;;;;;;;;;;5388377;26;20239;-71
2024/04/13 06:26:40;;;;;;;3.22;2.50;;;;;;;;;;5385945;26;20288;-72
2024/04/13 06:29:05;;;;;;;4.68;2.92;;;;;;;;;;5384094;26;20810;-72
2024/04/13 06:31:31;;;;;;;5.15;3.20;;;;;;;;;;5384566;26;20375;-72
2024/04/13 06:33:56;;;;;;;6.07;2.53;;;;;;;;;;5385129;26;20253;-72
2024/04/13 06:36:22;;;;;;;4.70;2.42;;;;;;;;;;5384152;26;20255;-72
2024/04/13 06:38:47;;;;;;;3.10;2.78;;;;;;;;;;5384658;26;20299;-72
2024/04/13 06:41:12;;;;;;;2.97;2.33;;;;;;;;;;5385243;26;20281;-72
2024/04/13 06:43:37;;;;;;;4.53;2.92;;;;;;;;;;5386551;26;20278;-73
2024/04/13 06:46:02;;;;;;;5.85;2.88;;;;;;;;;;5393190;26;20236;-72
2024/04/13 06:48:28;;;;;;;8.80;2.45;;;;;;;;;;5394745;26;20757;-72
2024/04/13 06:50:53;;;;;;;3.55;2.63;;;;;;;;;;5391037;26;20239;-72
2024/04/13 06:53:19;;;;;;;4.03;2.42;;;;;;;;;;5390257;26;20682;-72
2024/04/13 06:55:45;;;;;;;5.13;2.70;;;;;;;;;;5390745;26;20295;-72
2024/04/13 06:58:10;;;;;;;6.38;2.53;;;;;;;;;;5390879;26;20348;-72
2024/04/13 07:00:35;;;;;;;4.60;2.85;;;;;;;;;;5390189;26;20246;-72
2024/04/13 07:03:01;;;;;;;5.55;2.90;;;;;;;;;;5384441;26;20610;-72
2024/04/13 07:05:26;;;;;;;3.85;2.95;;;;;;;;;;5383630;26;20298;-72
2024/04/13 07:07:51;;;;;;;5.40;2.78;;;;;;;;;;5382280;26;20393;-72
2024/04/13 07:10:17;;;;;;;3.47;2.95;;;;;;;;;;5387361;26;20238;-74
2024/04/13 07:12:42;;;;;;;5.60;3.00;;;;;;;;;;5398684;26;20259;-73
2024/04/13 07:15:07;;;;;;;4.75;2.78;;;;;;;;;;5385932;26;20337;-72
2024/04/13 07:17:32;;;;;;;4.15;2.60;;;;;;;;;;5389193;26;20314;-72
2024/04/13 07:19:57;;;;;;;8.73;2.75;;;;;;;;;;5386052;26;20857;-72
2024/04/13 07:22:23;;;;;;;3.25;2.50;;;;;;;;;;5396840;26;20310;-72
2024/04/13 07:24:48;;;;;;;4.38;2.90;;;;;;;;;;5389174;26;20607;-72
2024/04/13 07:27:13;;;;;;;4.35;2.80;;;;;;;;;;5384504;26;20231;-72
2024/04/13 07:29:39;;;;;;;5.28;2.88;;;;;;;;;;5390460;26;20298;-72
2024/04/13 07:32:04;;;;;;;4.55;2.78;;;;;;;;;;5419066;26;20246;-72
2024/04/13 07:34:29;;;;;;;6.13;3.10;;;;;;;;;;5389561;26;20254;-73
2024/04/13 07:36:54;;;;;;;10.93;3.10;;;;;;;;;;5396804;26;20243;-73
2024/04/13 07:39:19;;;;;;;2.50;2.25;;;;;;;;;;5413844;26;20223;-75
2024/04/13 07:41:45;;;;;;;6.37;2.83;;;;;;;;;;5407901;26;20269;-73
2024/04/13 07:44:10;;;;;;;5.05;2.97;;;;;;;;;;5416243;26;20456;-73
2024/04/13 07:46:36;;;;;;;4.43;2.80;;;;;;;;;;5402544;26;20230;-73
2024/04/13 07:49:01;;;;;;;7.20;2.50;;;;;;;;;;5410684;26;20347;-73
2024/04/13 07:51:26;;;;;;;5.45;2.80;;;;;;;;;;5402218;26;20502;-73
2024/04/13 07:53:51;;;;;;;4.40;2.78;;;;;;;;;;5384945;26;20340;-73
2024/04/13 07:56:17;;;;;;;6.10;3.05;;;;;;;;;;5384231;26;20247;-73
2024/04/13 07:58:42;;;;;;;3.05;2.40;;;;;;;;;;5384677;26;21417;-74
2024/04/13 08:01:07;;;;;;;6.35;3.28;;;;;;;;;;5383596;26;20239;-73
2024/04/13 08:03:33;;;;;;;5.40;2.60;;;;;;;;;;5383157;26;20246;-73
2024/04/13 08:05:58;;;;;;;3.10;2.72;;;;;;;;;;5381123;26;20516;-73
2024/04/13 08:08:23;;;;;;;4.25;2.72;;;;;;;;;;5380511;26;22524;-74
2024/04/13 08:10:48;;;;;;;3.78;2.47;;;;;;;;;;5381163;26;20285;-73
2024/04/13 08:13:15;;;;;;;4.20;2.20;;;;;;;;;;5381968;26;20352;-72
2024/04/13 08:15:40;;;;;;;5.10;2.95;;;;;;;;;;5380390;26;20238;-72
2024/04/13 08:18:05;;;;;;;4.63;2.70;;;;;;;;;;5384503;26;20239;-73
2024/04/13 08:20:31;;;;;;;4.93;2.88;;;;;;;;;;5409922;26;20372;-72
2024/04/13 08:22:56;;;;;;;3.67;2.67;;;;;;;;;;5386775;26;20738;-72
2024/04/13 08:25:21;;;;;;;4.47;3.28;;;;;;;;;;5378179;26;20463;-72
2024/04/13 08:27:46;;;;;;;5.83;2.77;;;;;;;;;;5379616;26;20342;-71
2024/04/13 08:30:12;;;;;;;6.28;2.88;;;;;;;;;;5382261;26;20450;-73
2024/04/13 08:32:38;;;;;;;6.40;2.75;;;;;;;;;;5384092;26;20290;-72
2024/04/13 08:35:03;;;;;;;5.70;3.08;;;;;;;;;;5383595;26;20305;-72
2024/04/13 08:37:29;;;;;;;4.05;2.80;;;;;;;;;;5388684;26;20361;-72
2024/04/13 08:39:54;;;;;;;6.78;3.10;;;;;;;;;;5386785;26;21244;-72
2024/04/13 08:42:23;;;;;;;4.88;3.03;;;;;;;;;;5391711;26;20262;-72
2024/04/13 08:44:54;;;;;;;4.88;2.63;;;;;;;;;;5388548;26;20796;-72
2024/04/13 08:47:19;;;;;;;6.53;3.40;;;;;;;;;;5392257;26;20232;-72
2024/04/13 08:49:47;;;;;;;4.22;3.17;;;;;;;;;;5387600;26;20293;-72
2024/04/13 08:52:12;;;;;;;4.75;2.92;;;;;;;;;;5386092;26;20624;-72
2024/04/13 08:54:38;;;;;;;5.65;2.90;;;;;;;;;;5386864;26;20294;-72
2024/04/13 08:57:05;;;;;;;4.05;3.05;;;;;;;;;;5411822;26;21181;-71
2024/04/13 08:59:30;;;;;;;8.75;3.40;;;;;;;;;;5386661;26;20236;-72
2024/04/13 09:01:59;;;;;;;8.43;4.03;;;;;;;;;;5386954;26;20340;-72
2024/04/13 09:04:24;;;;;;;12.88;4.43;;;;;;;;;;5389477;26;20246;-72
2024/04/13 09:06:49;;;;;;;6.05;3.25;;;;;;;;;;5388400;26;20235;-72
2024/04/13 09:09:14;;;;;;;5.65;3.35;;;;;;;;;;5388845;26;20788;-72
2024/04/13 09:11:40;;;;;;;6.00;3.72;;;;;;;;;;5387924;26;22893;-72
2024/04/13 09:14:05;;;;;;;5.10;3.53;;;;;;;;;;5386423;26;20346;-71
2024/04/13 09:16:32;;;;;;;4.82;3.17;;;;;;;;;;5387236;26;20327;-72
2024/04/13 09:18:57;;;;;;;7.05;4.13;;;;;;;;;;5387471;26;20242;-70
2024/04/13 09:21:22;;;;;;;5.03;3.47;;;;;;;;;;5420764;26;20339;-70
2024/04/13 09:23:49;;;;;;;7.68;4.13;;;;;;;;;;5390216;26;20730;-69
2024/04/13 09:26:14;;;;;;;8.65;3.97;;;;;;;;;;5387880;26;20357;-69
2024/04/13 09:28:40;;;;;;;4.88;3.50;;;;;;;;;;5386321;26;20243;-68
2024/04/13 09:31:07;;;;;;;4.15;3.53;;;;;;;;;;5387898;26;20729;-70
2024/04/13 09:33:33;;;;;;;8.65;3.63;;;;;;;;;;5384766;26;20390;-71
2024/04/13 09:35:58;;;;;;;7.20;4.20;;;;;;;;;;5387716;26;20572;-68
2024/04/13 09:38:23;;;;;;;7.22;4.45;;;;;;;;;;5386050;26;20238;-69
2024/04/13 09:40:55;;;;;;;7.80;4.85;;;;;;;;;;5387216;26;20243;-69
2024/04/13 09:43:23;;;;;;;10.82;5.32;;;;;;;;;;5390630;26;20279;-69
2024/04/13 09:45:54;;;;;;;8.30;5.22;;;;;;;;;;5385786;26;20769;-70
2024/04/13 09:48:19;;;;;;;8.05;5.72;;;;;;;;;;5387182;26;20264;-71
2024/04/13 09:50:45;;;;;;;9.33;5.43;;;;;;;;;;5386957;26;21765;-71
2024/04/13 09:53:10;;;;;;;8.17;5.97;;;;;;;;;;5387992;26;20545;-70
2024/04/13 09:55:35;;;;;;;10.57;5.77;;;;;;;;;;5384918;26;20524;-71
2024/04/13 09:58:01;;;;;;;10.25;5.97;;;;;;;;;;5387277;26;20530;-70
2024/04/13 10:00:27;;;;;;;10.30;5.60;;;;;;;;;;5405002;26;20283;-70
2024/04/13 10:02:52;;;;;;;10.93;6.15;;;;;;;;;;5386257;26;20235;-70
2024/04/13 10:05:18;;;;;;;7.93;5.80;;;;;;;;;;5385797;26;20231;-70
2024/04/13 10:07:43;;;;;;;8.20;6.25;;;;;;;;;;5385649;26;20238;-70
2024/04/13 10:10:13;;;;;;;8.60;6.18;;;;;;;;;;5387278;26;20273;-70
2024/04/13 10:12:39;;;;;;;9.15;6.38;;;;;;;;;;5384610;26;20238;-70
2024/04/13 10:15:04;;;;;;;9.23;6.50;;;;;;;;;;5386257;26;20767;-70
2024/04/13 10:17:30;;;;;;;7.57;5.93;;;;;;;;;;5387499;26;20272;-70
2024/04/13 10:19:55;;;;;;;11.30;7.22;;;;;;;;;;5386409;26;20246;-70
2024/04/13 10:22:21;;;;;;;10.27;5.85;;;;;;;;;;5391666;26;20254;-70
2024/04/13 10:24:46;;;;;;;8.82;6.25;;;;;;;;;;5386523;26;20239;-70
2024/04/13 10:27:12;;;;;;;8.77;5.70;;;;;;;;;;5383045;26;20347;-69
2024/04/13 10:29:40;;;;;;;7.43;5.88;;;;;;;;;;5385328;26;20250;-70
2024/04/13 10:32:24;;;;;;;6.25;5.45;;;;;;;;;;5386415;26;20275;-69
2024/04/13 10:34:49;;;;;;;12.30;6.40;;;;;;;;;;5384911;26;20291;-69
2024/04/13 10:37:30;;;;;;;6.95;6.25;;;;;;;;;;5385356;26;20245;-69
2024/04/13 10:39:56;;;;;;;7.60;5.43;;;;;;;;;;5381853;26;20331;-70
2024/04/13 10:42:32;;;;;;;8.85;6.43;;;;;;;;;;5390024;26;20918;-70
2024/04/13 10:44:58;;;;;;;8.20;5.75;;;;;;;;;;5385299;26;20297;-70
2024/04/13 10:47:23;;;;;;;8.07;5.57;;;;;;;;;;5387674;26;20684;-69
2024/04/13 10:49:48;;;;;;;9.60;6.30;;;;;;;;;;5385081;26;20302;-69
2024/04/13 10:52:14;;;;;;;7.45;5.45;;;;;;;;;;5386050;26;20236;-69
2024/04/13 10:54:39;;;;;;;10.77;6.20;;;;;;;;;;5385272;26;20235;-69
2024/04/13 10:57:05;;;;;;;8.63;5.80;;;;;;;;;;5383768;26;20231;-69
2024/04/13 10:59:30;;;;;;;7.88;5.72;;;;;;;;;;5386624;26;20322;-69
2024/04/13 11:01:55;;;;;;;8.60;5.40;;;;;;;;;;5391278;26;20799;-70
2024/04/13 11:04:20;;;;;;;9.77;6.13;;;;;;;;;;5384690;26;20446;-70
2024/04/13 11:06:46;;;;;;;9.45;5.57;;;;;;;;;;5384975;26;20445;-69
2024/04/13 11:09:12;;;;;;;9.80;6.17;;;;;;;;;;5384134;26;20750;-70
2024/04/13 11:11:37;;;;;;;6.72;5.32;;;;;;;;;;5388867;26;20557;-69
2024/04/13 11:14:03;;;;;;;7.22;4.93;;;;;;;;;;5386431;26;21027;-69
2024/04/13 11:16:28;;;;;;;7.97;5.63;;;;;;;;;;5389954;26;20768;-70
2024/04/13 11:18:53;;;;;;;8.27;5.10;;;;;;;;;;5385494;26;20300;-69
2024/04/13 11:21:22;;;;;;;8.38;5.53;;;;;;;;;;5386587;26;20792;-69
2024/04/13 11:23:47;;;;;;;9.57;5.45;;;;;;;;;;5389377;26;20246;-70
2024/04/13 11:26:13;;;;;;;6.18;5.40;;;;;;;;;;5414954;26;20334;-70
2024/04/13 11:28:38;;;;;;;6.30;4.85;;;;;;;;;;5381992;26;20753;-71
2024/04/13 11:31:03;;;;;;;6.30;4.80;;;;;;;;;;5383353;26;20612;-68
2024/04/13 11:33:30;;;;;;;7.72;5.03;;;;;;;;;;5386113;26;20243;-70
2024/04/13 11:35:56;;;;;;;7.20;4.97;;;;;;;;;;5384310;26;20347;-70
2024/04/13 11:38:22;;;;;;;7.88;5.05;;;;;;;;;;5385786;26;20242;-69
2024/04/13 11:40:48;;;;;;;8.60;4.57;;;;;;;;;;5387013;26;20297;-70
2024/04/13 11:43:14;;;;;;;7.43;5.10;;;;;;;;;;5390107;26;20235;-69
2024/04/13 11:45:40;;;;;;;7.18;5.45;;;;;;;;;;5385193;26;20242;-70
2024/04/13 11:48:05;;;;;;;6.53;4.40;;;;;;;;;;5386933;26;20773;-69
2024/04/13 11:50:30;;;;;;;9.10;5.32;;;;;;;;;;5384222;26;20344;-69
2024/04/13 11:52:56;;;;;;;7.63;4.85;;;;;;;;;;5385666;26;20272;-68
2024/04/13 11:55:24;;;;;;;8.68;4.13;;;;;;;;;;5383582;26;20264;-70
2024/04/13 11:57:50;;;;;;;5.90;3.67;;;;;;;;;;5383442;26;20290;-69
2024/04/13 12:00:16;;;;;;;5.50;3.28;;;;;;;;;;5389873;26;20867;-69
2024/04/13 12:02:43;;;;;;;3.88;3.00;;;;;;;;;;5384646;26;20226;-70
2024/04/13 12:05:09;;;;;;;3.85;2.45;;;;;;;;;;5384528;26;20231;-69
2024/04/13 12:07:34;;;;;;;3.75;2.78;;;;;;;;;;5391787;26;20761;-69
2024/04/13 12:09:59;;;;;;;3.05;2.65;;;;;;;;;;5384934;26;20243;-69
2024/04/13 12:12:24;;;;;;;4.27;2.13;;;;;;;;;;5389289;26;20235;-69
2024/04/13 12:14:52;;;;;;;3.42;2.47;;;;;;;;;;5387701;26;20511;-70
2024/04/13 12:17:17;;;;;;;5.38;2.88;;;;;;;;;;5391135;26;20630;-69
2024/04/13 12:19:43;;;;;;;6.13;2.60;;;;;;;;;;5386314;26;20234;-69
2024/04/13 12:22:08;;;;;;;5.10;2.67;;;;;;;;;;5388803;26;21280;-69
2024/04/13 12:24:35;;;;;;;3.70;2.30;;;;;;;;;;5386972;26;20471;-70
2024/04/13 12:27:00;;;;;;;5.53;2.97;;;;;;;;;;5384542;26;20519;-69
2024/04/13 12:29:25;;;;;;;4.77;3.30;;;;;;;;;;5386260;26;20243;-70
2024/04/13 12:31:51;;;;;;;4.50;2.83;;;;;;;;;;5388508;26;20511;-69
2024/04/13 12:34:17;;;;;;;4.28;2.90;;;;;;;;;;5386663;26;20276;-68
2024/04/13 12:36:42;;;;;;;4.68;2.63;;;;;;;;;;5388496;26;20742;-70
2024/04/13 12:39:10;;;;;;;4.03;2.80;;;;;;;;;;5388131;26;20978;-69
2024/04/13 12:41:36;;;;;;;6.15;2.97;;;;;;;;;;5387550;26;20712;-69
2024/04/13 12:44:01;;;;;;;4.65;2.67;;;;;;;;;;5392154;26;22703;-69
2024/04/13 12:46:27;;;;;;;5.83;3.70;;;;;;;;;;5392911;26;20256;-71
2024/04/13 12:48:52;;;;;;;4.33;3.53;;;;;;;;;;5386792;26;20586;-70
2024/04/13 12:51:18;;;;;;;5.53;2.93;;;;;;;;;;5387961;26;20465;-69
2024/04/13 12:53:44;;;;;;;4.93;3.30;;;;;;;;;;5389780;26;21787;-70
2024/04/13 12:56:09;;;;;;;4.65;3.47;;;;;;;;;;5387574;26;20696;-69
2024/04/13 12:58:34;;;;;;;5.85;3.25;;;;;;;;;;5387199;26;20235;-69
2024/04/13 13:01:00;;;;;;;4.27;3.50;;;;;;;;;;5388177;26;20757;-70
2024/04/13 13:03:26;;;;;;;4.03;3.15;;;;;;;;;;5386505;26;20467;-69
2024/04/13 13:05:52;;;;;;;7.15;3.35;;;;;;;;;;5411333;26;20310;-69
2024/04/13 13:08:17;;;;;;;5.95;3.75;;;;;;;;;;5385458;26;21974;-69
2024/04/13 13:10:42;;;;;;;5.75;3.47;;;;;;;;;;5386534;26;20243;-69
2024/04/13 13:13:07;;;;;;;4.77;3.27;;;;;;;;;;5385378;26;20306;-70
2024/04/13 13:15:33;;;;;;;7.25;4.05;;;;;;;;;;5386925;26;20473;-69
2024/04/13 13:17:58;;;;;;;9.37;3.40;;;;;;;;;;5389071;26;20262;-70
2024/04/13 13:20:23;;;;;;;6.10;3.47;;;;;;;;;;5385998;26;20835;-69
2024/04/13 13:22:48;;;;;;;4.78;3.58;;;;;;;;;;5391499;26;20520;-69
2024/04/13 13:25:13;;;;;;;6.93;3.57;;;;;;;;;;5385483;26;20636;-70
2024/04/13 13:27:39;;;;;;;7.43;3.10;;;;;;;;;;5386380;26;20455;-70
2024/04/13 13:30:05;;;;;;;4.37;3.10;;;;;;;;;;5386600;26;20745;-69
2024/04/13 13:32:30;;;;;;;5.65;3.13;;;;;;;;;;5385515;26;21032;-70
2024/04/13 13:34:55;;;;;;;6.00;3.35;;;;;;;;;;5385921;26;20275;-69
2024/04/13 13:37:21;;;;;;;6.17;3.23;;;;;;;;;;5386688;26;20886;-70
2024/04/13 13:39:46;;;;;;;4.97;3.43;;;;;;;;;;5386518;26;20477;-69
2024/04/13 13:42:11;;;;;;;4.60;3.00;;;;;;;;;;5391923;26;20452;-69
2024/04/13 13:44:37;;;;;;;4.97;3.38;;;;;;;;;;5385899;26;20453;-70
2024/04/13 13:47:03;;;;;;;12.30;4.03;;;;;;;;;;5389060;26;20633;-72
2024/04/13 13:49:29;;;;;;;4.63;3.63;;;;;;;;;;5387695;26;21016;-71
2024/04/13 13:51:54;;;;;;;7.40;3.38;;;;;;;;;;5385782;26;20285;-70
2024/04/13 13:54:19;;;;;;;7.03;3.78;;;;;;;;;;5386903;26;20246;-71
2024/04/13 13:56:44;;;;;;;5.10;3.90;;;;;;;;;;5386517;26;20282;-70
2024/04/13 13:59:10;;;;;;;6.38;3.60;;;;;;;;;;5386466;26;20453;-72
2024/04/13 14:01:35;;;;;;;6.00;3.80;;;;;;;;;;5386023;26;20365;-69
2024/04/13 14:04:00;;;;;;;6.25;3.60;;;;;;;;;;5386948;26;20316;-70
2024/04/13 14:06:25;;;;;;;5.97;3.60;;;;;;;;;;5387063;26;20231;-69
2024/04/13 14:08:51;;;;;;;6.00;3.63;;;;;;;;;;5386652;26;20508;-68
2024/04/13 14:11:16;;;;;;;7.95;3.70;;;;;;;;;;5386032;26;20681;-69
2024/04/13 14:13:41;;;;;;;5.37;3.37;;;;;;;;;;5385444;26;20286;-69
2024/04/13 14:16:06;;;;;;;6.03;3.53;;;;;;;;;;5385596;26;20513;-70
2024/04/13 14:18:31;;;;;;;5.97;3.53;;;;;;;;;;5393716;26;21062;-69
2024/04/13 14:20:57;;;;;;;7.93;4.17;;;;;;;;;;5387815;26;20473;-70
2024/04/13 14:23:22;;;;;;;5.47;4.07;;;;;;;;;;5389817;26;20451;-69
2024/04/13 14:25:47;;;;;;;7.88;4.28;;;;;;;;;;5388157;26;20770;-70
2024/04/13 14:28:13;;;;;;;6.47;3.40;;;;;;;;;;5384229;26;20249;-70
2024/04/13 14:30:39;;;;;;;6.88;3.55;;;;;;;;;;5386412;26;20294;-70
2024/04/13 14:33:05;;;;;;;5.70;3.47;;;;;;;;;;5384448;26;20273;-70